Kinsley, Kansas
Current Conditions -  °F | °C
As of 11:52 PM on Tuesday 25 Nov 2014 (Local Time) from KDDC Reporting Station
Scattered Clouds Scattered Clouds  
Wind Chill: -1°   Ceiling: Unl
Heat Index:   Visibility: 10mi
Dew Point: -8°   Wind: 13mph
Humidity: 44%   Direction: 320°NW
Pressure: 29.96"   Gusts: NA
Location:  37.92°N, 99.41°W
Report Text: KDDC 260552Z AUTO 32011KT 10SM SCT080 03/M08 A2996 RMK AO2 SLP149 T00331078 10061 20006 401061061 53012
Loading
Personal Weather Stations






























Interactive Weather Map New forecast layout! Learn more

10-Day Weather Forecast

Advertisements
Track Severe Weather on mobile